Time;durP1;ratioP1;P1;durP2;ratioP2;P2;SDS_P1;SDS_P2;PMS_P1;PMS_P2;Temp;Humidity;BMP_temperature;BMP_pressure;BME280_temperature;BME280_humidity;BME280_pressure;Samples;Min_cycle;Max_cycle;Signal;HPM_P1;HPM_P2
2021/12/29 00:01:57;;;;;;;2.42;0.80;;;18.90;99.90;;;;;;5049380;28;20181;-74
2021/12/29 00:04:28;;;;;;;2.97;0.65;;;19.00;99.90;;;;;;5052388;28;20677;-74
2021/12/29 00:06:59;;;;;;;1.98;0.70;;;19.00;99.90;;;;;;5051156;28;20200;-74
2021/12/29 00:09:36;;;;;;;4.60;1.20;;;18.90;99.90;;;;;;5054976;28;20258;-74
2021/12/29 00:12:09;;;;;;;3.00;0.82;;;18.90;99.90;;;;;;5052271;28;20189;-74
2021/12/29 00:14:40;;;;;;;2.88;0.90;;;18.90;99.90;;;;;;5052940;28;20233;-75
2021/12/29 00:17:11;;;;;;;2.50;1.00;;;18.90;99.90;;;;;;5052501;28;20193;-74
2021/12/29 00:19:41;;;;;;;3.03;0.80;;;18.90;99.90;;;;;;5048002;28;20555;-74
2021/12/29 00:22:12;;;;;;;2.10;0.70;;;18.90;99.90;;;;;;5037017;28;20681;-75
2021/12/29 00:24:43;;;;;;;5.13;0.93;;;19.00;99.90;;;;;;5033213;28;20197;-75
2021/12/29 00:27:16;;;;;;;3.05;1.20;;;19.10;99.90;;;;;;5052255;28;20193;-75
2021/12/29 00:29:46;;;;;;;3.42;1.00;;;19.20;99.90;;;;;;5052684;28;20673;-74
2021/12/29 00:32:17;;;;;;;2.92;0.80;;;19.30;99.90;;;;;;5047337;28;20185;-74
2021/12/29 00:34:48;;;;;;;2.72;0.80;;;19.50;99.90;;;;;;5052171;28;20197;-74
2021/12/29 00:37:18;;;;;;;2.72;0.70;;;19.50;99.90;;;;;;5051808;28;20194;-74
2021/12/29 00:39:49;;;;;;;1.67;0.60;;;19.70;99.90;;;;;;5051856;28;20719;-74
2021/12/29 00:42:22;;;;;;;3.83;0.73;;;19.70;99.90;;;;;;5051589;28;20604;-74
2021/12/29 00:44:53;;;;;;;4.65;0.88;;;19.70;99.90;;;;;;5051801;28;20193;-75
2021/12/29 00:47:24;;;;;;;3.28;0.75;;;19.80;99.90;;;;;;5052979;28;20637;-74
2021/12/29 00:49:55;;;;;;;2.35;0.77;;;19.90;99.90;;;;;;5051512;28;20314;-75
2021/12/29 00:52:26;;;;;;;2.38;0.70;;;19.90;99.90;;;;;;5052208;28;20200;-73
2021/12/29 00:54:56;;;;;;;2.78;1.00;;;20.00;99.90;;;;;;5051921;28;20243;-74
2021/12/29 00:57:29;;;;;;;3.15;0.80;;;20.00;99.90;;;;;;5049009;28;20194;-75
2021/12/29 00:59:59;;;;;;;1.83;0.60;;;20.10;99.90;;;;;;5052816;28;20248;-75
2021/12/29 01:02:30;;;;;;;2.90;0.75;;;20.10;99.90;;;;;;5050795;28;20190;-74
2021/12/29 01:05:01;;;;;;;3.10;0.80;;;20.10;99.90;;;;;;5049245;28;20190;-75
2021/12/29 01:07:32;;;;;;;2.15;0.85;;;20.10;99.90;;;;;;5051790;28;20198;-74
2021/12/29 01:10:03;;;;;;;4.25;1.00;;;20.10;99.90;;;;;;5052561;28;20732;-74
2021/12/29 01:12:36;;;;;;;3.33;0.80;;;20.20;99.90;;;;;;5036771;28;20609;-74
2021/12/29 01:15:14;;;;;;;5.13;1.42;;;20.30;99.90;;;;;;5050141;28;20194;-74
2021/12/29 01:17:45;;;;;;;4.38;1.00;;;20.40;99.90;;;;;;5052245;28;20190;-75
2021/12/29 01:20:16;;;;;;;2.30;0.60;;;20.60;99.90;;;;;;5052485;28;20198;-74
2021/12/29 01:22:46;;;;;;;0.80;0.50;;;20.70;99.90;;;;;;5053510;28;20645;-74
2021/12/29 01:25:17;;;;;;;2.50;0.60;;;20.80;99.90;;;;;;5056253;28;20255;-74
2021/12/29 01:27:50;;;;;;;2.95;0.60;;;20.90;99.90;;;;;;5056209;28;20196;-73
2021/12/29 01:30:21;;;;;;;2.63;0.80;;;21.00;99.90;;;;;;5055591;28;20221;-74
2021/12/29 01:32:52;;;;;;;1.30;0.55;;;21.20;99.90;;;;;;5050717;28;20196;-74
2021/12/29 01:35:22;;;;;;;1.70;0.55;;;21.20;99.90;;;;;;5050653;28;20241;-74
2021/12/29 01:37:53;;;;;;;1.75;0.50;;;21.40;99.90;;;;;;5036076;28;20225;-74
2021/12/29 01:40:23;;;;;;;2.88;0.98;;;21.70;99.90;;;;;;5055188;28;20279;-73
2021/12/29 01:42:56;;;;;;;2.00;0.47;;;21.90;99.90;;;;;;5051441;28;20194;-74
2021/12/29 01:45:28;;;;;;;2.15;0.50;;;22.00;99.90;;;;;;5055274;28;20190;-74
2021/12/29 01:47:59;;;;;;;1.45;0.40;;;22.00;99.90;;;;;;5052455;28;20197;-74
2021/12/29 01:50:30;;;;;;;1.83;0.52;;;22.00;99.90;;;;;;5055357;28;20742;-74
2021/12/29 01:53:02;;;;;;;0.80;0.43;;;22.10;99.90;;;;;;5047729;28;20200;-74
2021/12/29 01:55:33;;;;;;;1.73;0.50;;;22.40;99.90;;;;;;5055019;28;20307;-75
2021/12/29 01:58:06;;;;;;;2.78;0.60;;;22.40;99.90;;;;;;5055290;28;20207;-74
2021/12/29 02:00:43;;;;;;;1.60;0.50;;;22.40;99.90;;;;;;5055101;28;20223;-75
2021/12/29 02:03:13;;;;;;;1.13;0.57;;;22.50;99.90;;;;;;5055319;28;20190;-74
2021/12/29 02:05:44;;;;;;;1.88;0.30;;;22.60;99.90;;;;;;5055102;28;20216;-75
2021/12/29 02:08:21;;;;;;;1.02;0.40;;;22.60;99.90;;;;;;5055456;28;20189;-75
2021/12/29 02:10:53;;;;;;;2.40;0.40;;;22.60;99.90;;;;;;5055082;28;20331;-75
2021/12/29 02:13:25;;;;;;;1.75;0.38;;;22.60;99.90;;;;;;5055237;28;20190;-76
2021/12/29 02:15:56;;;;;;;3.10;0.40;;;22.50;99.90;;;;;;5049485;28;20202;-75
2021/12/29 02:18:27;;;;;;;1.73;0.50;;;22.50;99.90;;;;;;5054440;28;20193;-75
2021/12/29 02:20:59;;;;;;;1.50;0.35;;;22.40;99.90;;;;;;5053652;28;20202;-74
2021/12/29 02:23:34;;;;;;;1.15;0.40;;;22.30;99.90;;;;;;5051018;28;20191;-74
2021/12/29 02:26:06;;;;;;;1.58;0.55;;;22.20;99.90;;;;;;5054484;28;20193;-75
2021/12/29 02:28:42;;;;;;;2.97;0.60;;;22.10;99.90;;;;;;5054212;28;20186;-74
2021/12/29 02:31:12;;;;;;;2.38;0.60;;;22.10;99.90;;;;;;5053890;28;20244;-74
2021/12/29 02:33:43;;;;;;;2.42;0.88;;;22.20;99.90;;;;;;5053114;28;20680;-74
2021/12/29 02:36:17;;;;;;;1.10;0.60;;;22.30;99.90;;;;;;5054737;28;20185;-74
2021/12/29 02:38:51;;;;;;;2.15;0.50;;;22.40;99.90;;;;;;5054008;28;20634;-73
2021/12/29 02:41:26;;;;;;;3.22;0.47;;;22.50;99.90;;;;;;5053576;28;20692;-75
2021/12/29 02:44:00;;;;;;;2.63;0.73;;;22.50;99.90;;;;;;5054715;28;20604;-74
2021/12/29 02:46:35;;;;;;;2.88;0.52;;;22.60;99.90;;;;;;5054741;28;20197;-74
2021/12/29 02:49:06;;;;;;;1.60;0.30;;;22.70;99.90;;;;;;5053860;28;20657;-73
2021/12/29 02:51:39;;;;;;;1.33;0.45;;;22.70;99.90;;;;;;5052970;28;20216;-74
2021/12/29 02:54:10;;;;;;;2.17;0.65;;;22.50;99.90;;;;;;5053723;28;20190;-74
2021/12/29 02:56:40;;;;;;;3.08;0.60;;;22.50;99.90;;;;;;5049669;28;20189;-74
2021/12/29 02:59:11;;;;;;;3.22;0.50;;;22.50;99.90;;;;;;5053941;28;20594;-74
2021/12/29 03:01:42;;;;;;;1.63;0.60;;;22.50;99.90;;;;;;5053306;28;20193;-74
2021/12/29 03:04:13;;;;;;;2.95;0.70;;;22.50;99.90;;;;;;5051951;28;20646;-74
2021/12/29 03:06:45;;;;;;;1.77;0.40;;;22.50;99.90;;;;;;5051436;28;20190;-74
2021/12/29 03:09:19;;;;;;;3.55;0.50;;;22.50;99.90;;;;;;5054058;28;20642;-74
2021/12/29 03:11:50;;;;;;;1.85;0.60;;;22.60;99.90;;;;;;5054194;28;20754;-74
2021/12/29 03:14:21;;;;;;;2.22;0.50;;;22.50;99.90;;;;;;5042532;28;20194;-74
2021/12/29 03:16:52;;;;;;;2.40;0.40;;;22.40;99.90;;;;;;5040229;28;20186;-74
2021/12/29 03:19:23;;;;;;;1.95;0.63;;;22.30;99.90;;;;;;5053586;28;20659;-74
2021/12/29 03:21:55;;;;;;;1.48;0.45;;;22.20;99.90;;;;;;5052614;28;20192;-74
2021/12/29 03:24:26;;;;;;;1.90;0.43;;;22.00;99.90;;;;;;5047248;28;20221;-73
2021/12/29 03:26:57;;;;;;;1.63;0.60;;;21.80;99.90;;;;;;5039373;28;20189;-74
2021/12/29 03:29:27;;;;;;;1.38;0.40;;;21.70;99.90;;;;;;5052963;28;20197;-74
2021/12/29 03:31:59;;;;;;;1.02;0.50;;;21.70;99.90;;;;;;5053638;28;20211;-73
2021/12/29 03:34:30;;;;;;;2.17;0.40;;;21.70;99.90;;;;;;5052866;28;20193;-73
2021/12/29 03:37:03;;;;;;;3.83;0.60;;;21.70;99.90;;;;;;5053137;28;20629;-74
2021/12/29 03:39:38;;;;;;;4.50;0.60;;;21.70;99.90;;;;;;5053218;28;20186;-73
2021/12/29 03:42:09;;;;;;;1.23;0.30;;;21.80;99.90;;;;;;5051582;28;20300;-73
2021/12/29 03:44:40;;;;;;;2.08;0.40;;;21.80;99.90;;;;;;5052136;28;20194;-74
2021/12/29 03:47:11;;;;;;;3.13;0.50;;;21.80;99.90;;;;;;5047240;28;20186;-75
2021/12/29 03:49:41;;;;;;;2.53;0.50;;;21.70;99.90;;;;;;5049378;28;20217;-74
2021/12/29 03:52:14;;;;;;;2.22;0.50;;;21.60;99.90;;;;;;5052616;28;20210;-74
2021/12/29 03:54:44;;;;;;;3.35;0.80;;;21.50;99.90;;;;;;5053269;28;20664;-74
2021/12/29 03:57:15;;;;;;;1.35;0.40;;;21.40;99.90;;;;;;5053110;28;20202;-75
2021/12/29 03:59:46;;;;;;;3.58;0.60;;;21.30;99.90;;;;;;5053106;28;20664;-72
2021/12/29 04:02:19;;;;;;;1.35;0.60;;;21.20;99.90;;;;;;5052276;28;20189;-73
2021/12/29 04:04:50;;;;;;;1.42;0.43;;;21.20;99.90;;;;;;5053315;28;20201;-72
2021/12/29 04:07:22;;;;;;;3.08;0.50;;;21.30;99.90;;;;;;5052839;28;20190;-74
2021/12/29 04:09:53;;;;;;;4.20;0.98;;;21.40;99.90;;;;;;5050111;28;20694;-74
2021/12/29 04:12:24;;;;;;;4.75;0.70;;;21.50;99.90;;;;;;5049808;28;20204;-73
2021/12/29 04:14:55;;;;;;;2.88;0.70;;;21.60;99.90;;;;;;5052483;28;20605;-74
2021/12/29 04:17:30;;;;;;;2.05;0.45;;;21.60;99.90;;;;;;5048057;28;20197;-73
2021/12/29 04:22:49;;;;;;;1.42;0.47;;;21.50;99.90;;;;;;5048284;28;20196;-73
2021/12/29 04:25:24;;;;;;;2.83;0.60;;;21.50;99.90;;;;;;5052836;28;20652;-73
2021/12/29 04:27:55;;;;;;;4.75;0.70;;;21.50;99.90;;;;;;5052255;28;20642;-73
2021/12/29 04:30:26;;;;;;;14.95;3.28;;;21.50;99.90;;;;;;5052944;28;20214;-73
2021/12/29 04:32:57;;;;;;;3.22;0.70;;;21.60;99.90;;;;;;5052883;28;20752;-73
2021/12/29 04:35:28;;;;;;;2.33;0.60;;;21.70;99.90;;;;;;5049588;28;20189;-73
2021/12/29 04:38:01;;;;;;;2.25;0.70;;;21.60;99.90;;;;;;5052701;28;20633;-73
2021/12/29 04:40:31;;;;;;;7.07;0.90;;;21.60;99.90;;;;;;5052266;28;20242;-73
2021/12/29 04:43:03;;;;;;;4.53;0.80;;;21.60;99.90;;;;;;5052332;28;20201;-74
2021/12/29 04:45:34;;;;;;;4.72;0.80;;;21.70;99.90;;;;;;5052415;28;20194;-73
2021/12/29 04:48:11;;;;;;;2.58;0.80;;;21.60;99.90;;;;;;5051907;28;20239;-73
2021/12/29 04:50:42;;;;;;;2.65;0.60;;;21.60;99.90;;;;;;5051421;28;20213;-73
2021/12/29 04:53:14;;;;;;;2.90;0.55;;;21.60;99.90;;;;;;5051962;28;20190;-73
2021/12/29 04:55:47;;;;;;;4.43;0.52;;;21.60;99.90;;;;;;5052462;28;20585;-73
2021/12/29 04:58:23;;;;;;;2.60;0.60;;;21.60;99.90;;;;;;5054292;28;20244;-73
2021/12/29 05:00:54;;;;;;;4.93;0.60;;;21.60;99.90;;;;;;5056610;28;20209;-76
2021/12/29 05:03:26;;;;;;;1.92;0.70;;;21.60;99.90;;;;;;5055817;28;20190;-73
2021/12/29 05:08:24;;;;;;;3.13;0.70;;;21.60;99.90;;;;;;5036543;28;20194;-74
2021/12/29 05:08:48;;;;;;;4.75;0.95;;;21.60;99.90;;;;;;5055471;28;20277;-73
2021/12/29 05:11:19;;;;;;;4.47;0.60;;;21.70;99.90;;;;;;5055397;28;20244;-75
2021/12/29 05:13:49;;;;;;;1.90;0.63;;;21.80;99.90;;;;;;5053323;28;20193;-75
2021/12/29 05:16:20;;;;;;;1.42;0.47;;;21.90;99.90;;;;;;5036965;28;20193;-74
2021/12/29 05:18:51;;;;;;;2.70;0.50;;;21.90;99.90;;;;;;5055897;28;20649;-74
2021/12/29 05:21:21;;;;;;;2.72;0.57;;;21.90;99.90;;;;;;5056072;28;20202;-75
2021/12/29 05:23:54;;;;;;;1.83;0.40;;;22.00;99.90;;;;;;5055949;28;20198;-74
2021/12/29 05:26:25;;;;;;;1.10;0.38;;;22.20;99.90;;;;;;5055611;28;20284;-73
2021/12/29 05:28:55;;;;;;;2.33;0.50;;;22.20;99.90;;;;;;5042539;28;20189;-73
2021/12/29 05:31:27;;;;;;;3.10;0.60;;;22.30;99.90;;;;;;5055901;28;20275;-74
2021/12/29 05:33:58;;;;;;;1.75;0.40;;;22.40;99.90;;;;;;5055653;28;20189;-73
2021/12/29 05:36:29;;;;;;;1.95;0.40;;;22.30;99.90;;;;;;5055499;28;20602;-74
2021/12/29 05:39:02;;;;;;;0.88;0.20;;;22.30;99.90;;;;;;5049670;28;20190;-74
2021/12/29 05:41:32;;;;;;;1.60;0.40;;;22.30;99.90;;;;;;5054526;28;20233;-73
2021/12/29 05:44:03;;;;;;;1.75;0.32;;;22.20;99.90;;;;;;5055788;28;20197;-73
2021/12/29 05:46:34;;;;;;;1.55;0.40;;;22.10;99.90;;;;;;5055967;28;20190;-74
2021/12/29 05:49:04;;;;;;;1.73;0.60;;;22.10;99.90;;;;;;5055027;28;20186;-74
2021/12/29 05:51:35;;;;;;;0.93;0.30;;;22.00;99.90;;;;;;5054676;28;20583;-73
2021/12/29 05:54:08;;;;;;;2.13;0.35;;;21.90;99.90;;;;;;5055424;28;20190;-73
2021/12/29 05:56:40;;;;;;;0.90;0.20;;;21.90;99.90;;;;;;5035449;28;20704;-73
2021/12/29 05:59:11;;;;;;;2.47;0.40;;;21.80;99.90;;;;;;5035499;28;20669;-73
2021/12/29 06:01:43;;;;;;;3.33;0.50;;;21.70;99.90;;;;;;5035436;28;20549;-73
2021/12/29 06:04:13;;;;;;;1.17;0.35;;;21.70;99.90;;;;;;5053898;28;20205;-73
2021/12/29 06:06:44;;;;;;;1.65;0.40;;;21.90;99.90;;;;;;5055288;28;20198;-73
2021/12/29 06:09:17;;;;;;;1.85;0.30;;;22.00;99.90;;;;;;5054413;28;20204;-73
2021/12/29 06:11:47;;;;;;;1.60;0.30;;;22.20;99.90;;;;;;5054784;28;20623;-73
2021/12/29 06:14:18;;;;;;;3.42;0.40;;;22.40;99.90;;;;;;5054803;28;20190;-74
2021/12/29 06:16:48;;;;;;;1.48;0.40;;;22.40;99.90;;;;;;5055045;28;20213;-74
2021/12/29 06:19:19;;;;;;;1.27;0.30;;;22.40;99.90;;;;;;5039614;28;20256;-74
2021/12/29 06:21:50;;;;;;;2.28;0.30;;;22.40;99.90;;;;;;5053091;28;20182;-73
2021/12/29 06:24:22;;;;;;;1.70;0.30;;;22.40;99.90;;;;;;5054721;28;20641;-73
2021/12/29 06:26:54;;;;;;;0.43;0.30;;;22.30;99.90;;;;;;5054962;28;20198;-74
2021/12/29 06:29:25;;;;;;;2.33;0.40;;;22.40;99.90;;;;;;5054878;28;20248;-73
2021/12/29 06:31:55;;;;;;;1.10;0.20;;;22.50;99.90;;;;;;5054705;28;20681;-74
2021/12/29 06:34:26;;;;;;;1.33;0.40;;;22.60;99.90;;;;;;5045360;28;20252;-74
2021/12/29 06:36:58;;;;;;;3.47;0.50;;;22.70;99.90;;;;;;5053233;28;20186;-74
2021/12/29 06:39:30;;;;;;;1.95;0.40;;;22.70;99.90;;;;;;5054267;28;20201;-74
2021/12/29 06:42:01;;;;;;;1.33;0.35;;;22.70;99.90;;;;;;5054034;28;20271;-74
2021/12/29 06:44:32;;;;;;;1.90;0.40;;;22.70;99.90;;;;;;5053620;28;20671;-73
2021/12/29 06:47:03;;;;;;;1.27;0.40;;;22.70;99.90;;;;;;5054645;28;20190;-73
2021/12/29 06:49:34;;;;;;;2.15;0.30;;;22.70;99.90;;;;;;5054344;28;20189;-74
2021/12/29 06:52:05;;;;;;;4.88;0.50;;;22.60;99.90;;;;;;5053185;28;20286;-74
2021/12/29 06:54:39;;;;;;;1.63;0.40;;;22.40;99.90;;;;;;5051046;28;20196;-74
2021/12/29 06:57:09;;;;;;;3.50;0.50;;;22.30;99.90;;;;;;5054759;28;20225;-73
2021/12/29 06:59:42;;;;;;;1.02;0.40;;;22.30;99.90;;;;;;5054272;28;20198;-74
2021/12/29 07:02:17;;;;;;;2.40;0.43;;;22.40;99.90;;;;;;5047717;28;20204;-73
2021/12/29 07:04:48;;;;;;;1.58;0.30;;;22.40;99.90;;;;;;5047736;28;20560;-73
2021/12/29 07:07:19;;;;;;;2.15;0.30;;;22.40;99.90;;;;;;5053839;28;20247;-74
2021/12/29 07:09:51;;;;;;;2.85;0.60;;;22.40;99.90;;;;;;5050762;28;20265;-73
2021/12/29 07:12:22;;;;;;;2.03;0.40;;;22.40;99.90;;;;;;5053601;28;20213;-74
2021/12/29 07:14:53;;;;;;;2.70;0.55;;;22.30;99.90;;;;;;5041704;28;20190;-74
2021/12/29 07:17:23;;;;;;;1.10;0.30;;;22.30;99.90;;;;;;5034034;28;20198;-74
2021/12/29 07:19:54;;;;;;;2.58;0.60;;;22.30;99.90;;;;;;5043877;28;20225;-74
2021/12/29 07:22:25;;;;;;;1.75;0.47;;;22.30;99.90;;;;;;5053504;28;20243;-74
2021/12/29 07:25:01;;;;;;;2.47;0.70;;;22.30;99.90;;;;;;5053905;28;20547;-73
2021/12/29 07:27:32;;;;;;;1.33;0.43;;;22.30;99.90;;;;;;5053653;28;20251;-73
2021/12/29 07:30:02;;;;;;;2.08;0.60;;;22.30;99.90;;;;;;5053019;28;20221;-73
2021/12/29 07:32:33;;;;;;;2.47;0.70;;;22.20;99.90;;;;;;5053808;28;20618;-73
2021/12/29 07:35:04;;;;;;;1.90;0.52;;;22.20;99.90;;;;;;5053071;28;20598;-73
2021/12/29 07:37:34;;;;;;;1.95;0.60;;;22.20;99.90;;;;;;5052989;28;20215;-74
2021/12/29 07:40:09;;;;;;;2.40;0.60;;;22.20;99.90;;;;;;5052531;28;20211;-74
2021/12/29 07:42:41;;;;;;;1.52;0.40;;;22.20;99.90;;;;;;5053484;28;20201;-75
2021/12/29 07:45:13;;;;;;;2.10;1.15;;;22.20;99.90;;;;;;5053175;28;20626;-73
2021/12/29 07:47:47;;;;;;;1.13;0.90;;;22.20;99.90;;;;;;5053352;28;20190;-73
2021/12/29 07:50:19;;;;;;;1.95;0.40;;;22.10;99.90;;;;;;5053189;28;20185;-73
2021/12/29 07:52:50;;;;;;;3.17;0.80;;;22.00;99.90;;;;;;5052814;28;20209;-75
2021/12/29 07:55:23;;;;;;;0.73;0.30;;;22.10;99.90;;;;;;5053286;28;20201;-74
2021/12/29 07:57:53;;;;;;;3.53;0.82;;;21.80;99.90;;;;;;5053378;28;20193;-75
2021/12/29 08:00:24;;;;;;;4.25;0.80;;;21.70;99.90;;;;;;5047862;28;20205;-73
2021/12/29 08:02:56;;;;;;;3.03;0.75;;;21.60;99.90;;;;;;5050649;28;20208;-73
2021/12/29 08:05:26;;;;;;;4.18;0.70;;;21.60;99.90;;;;;;5051982;28;20190;-73
2021/12/29 08:07:57;;;;;;;0.57;0.28;;;21.70;99.90;;;;;;5051604;28;20255;-73
2021/12/29 08:10:29;;;;;;;2.08;0.40;;;21.70;99.90;;;;;;5052079;28;20233;-74
2021/12/29 08:13:00;;;;;;;2.35;0.70;;;21.80;99.90;;;;;;5052476;28;20267;-74
2021/12/29 08:15:32;;;;;;;2.22;0.50;;;21.80;99.90;;;;;;5052729;28;20637;-73
2021/12/29 08:18:03;;;;;;;2.83;0.50;;;21.80;99.90;;;;;;5052281;28;20228;-74
2021/12/29 08:20:35;;;;;;;1.75;0.40;;;21.80;99.90;;;;;;5049734;28;20229;-73
2021/12/29 08:23:07;;;;;;;2.35;0.60;;;21.70;99.90;;;;;;5052519;28;20272;-74
2021/12/29 08:25:40;;;;;;;1.63;0.38;;;21.70;99.90;;;;;;5052645;28;20194;-73
2021/12/29 08:28:11;;;;;;;1.95;0.40;;;21.60;99.90;;;;;;5052879;28;20189;-73
2021/12/29 08:30:41;;;;;;;2.83;0.63;;;21.50;99.90;;;;;;5044344;28;20189;-73
2021/12/29 08:33:12;;;;;;;2.15;0.70;;;21.50;99.90;;;;;;5055423;28;20558;-73
2021/12/29 08:35:43;;;;;;;3.90;0.70;;;21.40;99.90;;;;;;5057100;28;20197;-74
2021/12/29 08:38:13;;;;;;;2.50;0.80;;;21.40;99.90;;;;;;5056683;28;20194;-74
2021/12/29 08:40:46;;;;;;;3.30;0.95;;;21.30;99.90;;;;;;5056480;28;20614;-73
2021/12/29 08:43:17;;;;;;;2.58;0.70;;;21.30;99.90;;;;;;5056865;28;20208;-74
2021/12/29 08:45:49;;;;;;;2.55;0.80;;;21.20;99.90;;;;;;5056478;28;20330;-73
2021/12/29 08:48:19;;;;;;;0.88;0.40;;;21.20;99.90;;;;;;5056452;28;20552;-73
2021/12/29 08:50:50;;;;;;;2.80;0.57;;;21.10;99.90;;;;;;5056299;28;20653;-73
2021/12/29 08:53:21;;;;;;;3.47;0.73;;;21.10;99.90;;;;;;5056434;28;20644;-73
2021/12/29 08:55:55;;;;;;;3.92;0.80;;;21.00;99.90;;;;;;5056708;28;20251;-73
2021/12/29 08:58:26;;;;;;;1.67;0.68;;;20.90;99.90;;;;;;5056530;28;20193;-73
2021/12/29 09:00:59;;;;;;;0.98;0.68;;;20.90;99.90;;;;;;5039163;28;20280;-73
2021/12/29 09:03:30;;;;;;;3.13;0.57;;;20.80;99.90;;;;;;5056378;28;20186;-73
2021/12/29 09:06:01;;;;;;;1.92;0.63;;;20.80;99.90;;;;;;5056180;28;20198;-74
2021/12/29 09:08:31;;;;;;;3.15;0.63;;;20.70;99.90;;;;;;5056276;28;20193;-73
2021/12/29 09:11:04;;;;;;;3.78;0.63;;;20.70;99.90;;;;;;5055956;28;20575;-74
2021/12/29 09:13:35;;;;;;;4.00;0.80;;;20.60;99.90;;;;;;5056072;28;20618;-73
2021/12/29 09:16:07;;;;;;;1.38;0.50;;;20.50;99.90;;;;;;5056021;28;20554;-73
2021/12/29 09:18:39;;;;;;;1.77;0.70;;;20.50;99.90;;;;;;5056149;28;20201;-73
2021/12/29 09:21:15;;;;;;;2.38;0.80;;;20.50;99.90;;;;;;5056053;28;20194;-73
2021/12/29 09:23:46;;;;;;;3.75;0.93;;;20.40;99.90;;;;;;5053928;28;20192;-74
2021/12/29 09:26:19;;;;;;;2.35;0.90;;;20.40;99.90;;;;;;5055949;28;20193;-73
2021/12/29 09:28:51;;;;;;;2.47;0.80;;;20.30;99.90;;;;;;5053660;28;20637;-73
2021/12/29 09:31:22;;;;;;;4.22;0.70;;;20.20;99.90;;;;;;5044771;28;20642;-73
2021/12/29 09:33:56;;;;;;;2.53;0.80;;;20.20;99.90;;;;;;5055851;28;20204;-73
2021/12/29 09:36:27;;;;;;;1.25;0.60;;;20.20;99.90;;;;;;5055382;28;20213;-73
2021/12/29 09:38:57;;;;;;;3.80;0.90;;;20.10;99.90;;;;;;5053184;28;20247;-73
2021/12/29 09:41:32;;;;;;;1.83;1.00;;;20.10;99.90;;;;;;5053059;28;20758;-73
2021/12/29 09:44:03;;;;;;;1.98;0.70;;;20.00;99.90;;;;;;5054903;28;20716;-73
2021/12/29 09:46:34;;;;;;;2.78;0.60;;;20.00;99.90;;;;;;5055729;28;20696;-74
2021/12/29 09:49:05;;;;;;;2.50;0.82;;;19.90;99.90;;;;;;5055927;28;20190;-73
2021/12/29 09:51:36;;;;;;;1.38;0.60;;;19.80;99.90;;;;;;5055151;28;20252;-73
2021/12/29 09:54:07;;;;;;;1.42;0.70;;;19.80;99.90;;;;;;5055164;28;20197;-73
2021/12/29 09:56:42;;;;;;;2.33;0.80;;;19.70;99.90;;;;;;5050709;28;20194;-73
2021/12/29 09:59:13;;;;;;;2.45;0.75;;;19.70;99.90;;;;;;5055302;28;20196;-73
2021/12/29 10:01:43;;;;;;;2.20;0.80;;;19.70;99.90;;;;;;5054526;28;20197;-73
2021/12/29 10:04:17;;;;;;;3.38;1.00;;;19.70;99.90;;;;;;5058447;28;20194;-74
2021/12/29 10:06:48;;;;;;;2.63;1.20;;;19.60;99.90;;;;;;5055009;28;20190;-74
2021/12/29 10:09:22;;;;;;;4.78;1.90;;;19.60;99.90;;;;;;5055015;28;20190;-74
2021/12/29 10:11:56;;;;;;;5.43;1.80;;;19.60;99.90;;;;;;5055198;28;20232;-73
2021/12/29 10:14:35;;;;;;;5.15;2.08;;;19.50;99.90;;;;;;5055131;28;20230;-73
2021/12/29 10:17:15;;;;;;;4.65;1.80;;;19.50;99.90;;;;;;5054661;28;20189;-73
2021/12/29 10:19:46;;;;;;;2.67;1.60;;;19.40;99.90;;;;;;5050053;28;20197;-73
2021/12/29 10:22:26;;;;;;;2.47;1.40;;;19.40;99.90;;;;;;5052899;28;20189;-73
2021/12/29 10:25:07;;;;;;;6.15;1.50;;;19.40;99.90;;;;;;5055160;28;20193;-73
2021/12/29 10:27:41;;;;;;;4.05;1.40;;;19.40;99.90;;;;;;5046407;28;20189;-73
2021/12/29 10:30:23;;;;;;;3.53;1.50;;;19.30;99.90;;;;;;5054902;28;20189;-74
2021/12/29 10:32:55;;;;;;;2.70;0.95;;;19.30;99.90;;;;;;5054726;28;20210;-74
2021/12/29 10:35:28;;;;;;;3.28;1.20;;;19.30;99.90;;;;;;5037965;28;20229;-73
2021/12/29 10:38:15;;;;;;;2.55;1.00;;;19.20;99.90;;;;;;5054847;28;20194;-73
2021/12/29 10:40:49;;;;;;;1.98;1.00;;;19.10;99.90;;;;;;5053954;28;20232;-73
2021/12/29 10:43:22;;;;;;;2.97;0.88;;;19.10;99.90;;;;;;5054766;28;20186;-73
2021/12/29 10:45:55;;;;;;;1.58;0.75;;;19.10;99.90;;;;;;5054269;28;20201;-75
2021/12/29 10:48:28;;;;;;;2.17;0.82;;;19.20;99.90;;;;;;5054252;28;20197;-73
2021/12/29 10:51:02;;;;;;;4.28;0.70;;;19.10;99.90;;;;;;5054423;28;20193;-73
2021/12/29 10:53:34;;;;;;;1.63;0.70;;;19.10;99.90;;;;;;5045478;28;20217;-73
2021/12/29 10:56:06;;;;;;;2.10;0.77;;;19.00;99.90;;;;;;5045864;28;20198;-72
2021/12/29 10:58:38;;;;;;;5.10;0.90;;;19.00;99.90;;;;;;5052824;28;20580;-73
2021/12/29 11:01:11;;;;;;;1.70;0.80;;;19.00;99.90;;;;;;5050795;28;20207;-73
2021/12/29 11:03:48;;;;;;;3.45;1.20;;;18.90;99.90;;;;;;5049882;28;20198;-73
2021/12/29 11:06:20;;;;;;;4.05;1.25;;;18.80;99.90;;;;;;5054517;28;20202;-73
2021/12/29 11:08:52;;;;;;;4.15;1.40;;;18.80;99.90;;;;;;5053439;28;20227;-73
2021/12/29 11:11:35;;;;;;;1.92;1.23;;;18.80;99.90;;;;;;5053744;28;20222;-73
2021/12/29 11:14:19;;;;;;;2.00;1.00;;;18.80;99.90;;;;;;5053501;28;20235;-73
2021/12/29 11:16:55;;;;;;;3.92;1.15;;;18.80;99.90;;;;;;5053493;28;20285;-74
2021/12/29 11:19:25;;;;;;;2.47;1.00;;;18.80;99.90;;;;;;5053438;28;20185;-73
2021/12/29 11:22:06;;;;;;;2.35;0.98;;;18.80;99.90;;;;;;5054042;28;20186;-73
2021/12/29 11:24:37;;;;;;;1.73;0.90;;;18.70;99.90;;;;;;5052711;28;20194;-73
2021/12/29 11:27:17;;;;;;;3.90;0.95;;;18.70;99.90;;;;;;5052955;28;20600;-73
2021/12/29 11:29:58;;;;;;;1.55;1.10;;;18.70;99.90;;;;;;5052978;28;20205;-73
2021/12/29 11:32:33;;;;;;;2.90;1.10;;;18.60;99.90;;;;;;5053534;28;20296;-73
2021/12/29 11:35:09;;;;;;;2.13;1.20;;;18.60;99.90;;;;;;5053264;28;20185;-73
2021/12/29 11:37:41;;;;;;;4.00;1.02;;;18.60;99.90;;;;;;5053461;28;20225;-72
2021/12/29 11:40:14;;;;;;;3.97;1.27;;;18.50;99.90;;;;;;5050018;28;20240;-73
2021/12/29 11:42:44;;;;;;;7.45;1.10;;;18.50;99.90;;;;;;5045936;28;20197;-73
2021/12/29 11:45:17;;;;;;;3.55;0.93;;;18.50;99.90;;;;;;5052188;28;20243;-73
2021/12/29 11:47:49;;;;;;;2.95;0.90;;;18.50;99.90;;;;;;5050427;28;20186;-73
2021/12/29 11:50:26;;;;;;;2.78;1.00;;;18.50;99.90;;;;;;5052324;28;20194;-74
2021/12/29 11:53:31;;;;;;;1.67;0.90;;;18.40;99.90;;;;;;5049826;28;20289;-73
2021/12/29 11:56:03;;;;;;;1.92;1.08;;;18.50;99.90;;;;;;5049432;28;20331;-73
2021/12/29 11:58:38;;;;;;;2.65;1.00;;;18.40;99.90;;;;;;5052702;28;20197;-73
2021/12/29 12:01:14;;;;;;;3.63;1.10;;;18.50;99.90;;;;;;5052048;28;20199;-73
2021/12/29 12:03:50;;;;;;;3.55;1.10;;;18.50;99.90;;;;;;5052559;28;20193;-73
2021/12/29 12:06:30;;;;;;;2.58;0.90;;;18.40;99.90;;;;;;5052723;28;20196;-73
2021/12/29 12:09:13;;;;;;;3.83;1.17;;;18.40;99.90;;;;;;5053667;28;20189;-72
2021/12/29 12:11:52;;;;;;;7.35;1.40;;;18.30;99.90;;;;;;5051848;28;20235;-72
2021/12/29 12:14:26;;;;;;;2.03;1.15;;;18.30;99.90;;;;;;5052849;28;20292;-73
2021/12/29 12:17:00;;;;;;;2.47;1.05;;;18.30;99.90;;;;;;5053334;28;20205;-72
2021/12/29 12:19:32;;;;;;;2.88;1.08;;;18.30;99.90;;;;;;5042751;28;20695;-73
2021/12/29 12:22:08;;;;;;;3.35;1.20;;;18.30;99.90;;;;;;5044964;28;20193;-73
2021/12/29 12:24:41;;;;;;;3.50;1.40;;;18.30;99.90;;;;;;5050850;28;20227;-72
2021/12/29 12:27:16;;;;;;;4.57;1.40;;;18.30;99.90;;;;;;5051289;28;20196;-73
2021/12/29 12:29:49;;;;;;;2.58;1.13;;;18.30;99.90;;;;;;5057791;28;20204;-74
2021/12/29 12:32:27;;;;;;;3.47;1.20;;;18.30;99.90;;;;;;5057586;28;20196;-74
2021/12/29 12:35:01;;;;;;;5.38;1.45;;;18.20;99.90;;;;;;5054681;28;20269;-73
2021/12/29 12:37:35;;;;;;;3.90;1.60;;;18.20;99.90;;;;;;5057948;28;20204;-72
2021/12/29 12:40:11;;;;;;;3.33;1.30;;;18.10;99.90;;;;;;5057786;28;20228;-72
2021/12/29 12:42:43;;;;;;;4.10;1.25;;;18.20;99.90;;;;;;5058078;28;20197;-73
2021/12/29 12:45:22;;;;;;;3.15;1.38;;;18.20;99.90;;;;;;5052493;28;20660;-73
2021/12/29 12:48:06;;;;;;;2.67;1.30;;;18.10;99.90;;;;;;5058899;28;20207;-73
2021/12/29 12:50:38;;;;;;;2.78;1.20;;;18.10;99.90;;;;;;5057697;28;20205;-73
2021/12/29 12:53:10;;;;;;;3.03;1.40;;;18.10;99.90;;;;;;5060479;28;20220;-73
2021/12/29 12:55:49;;;;;;;3.20;1.40;;;18.10;99.90;;;;;;5060023;28;20580;-73
2021/12/29 12:58:22;;;;;;;4.35;1.60;;;18.10;99.90;;;;;;5059698;28;20205;-73
2021/12/29 13:00:54;;;;;;;3.28;1.15;;;18.10;99.90;;;;;;5062789;28;20209;-73
2021/12/29 13:03:27;;;;;;;4.07;1.48;;;18.00;99.90;;;;;;5050889;28;20190;-73
2021/12/29 13:06:00;;;;;;;2.97;1.20;;;18.00;99.90;;;;;;5051885;28;20186;-74
2021/12/29 13:08:33;;;;;;;2.00;1.15;;;18.00;99.90;;;;;;5052598;28;20695;-73
2021/12/29 13:11:06;;;;;;;2.17;1.15;;;18.00;99.90;;;;;;5052016;28;20230;-72
2021/12/29 13:13:39;;;;;;;3.28;1.15;;;18.00;99.90;;;;;;5052107;28;20583;-73
2021/12/29 13:16:13;;;;;;;1.63;0.95;;;17.90;99.90;;;;;;5051542;28;20189;-73
2021/12/29 13:18:47;;;;;;;2.47;1.10;;;17.90;99.90;;;;;;5053736;28;20185;-73